createdAt,value
2023-04-26T00:01:40.001Z,101460.44
2023-04-26T00:04:08.574Z,101454.06
2023-04-26T00:06:37.184Z,101471.56
2023-04-26T00:09:04.875Z,101469.91
2023-04-26T00:11:31.270Z,101477.31
2023-04-26T00:13:58.685Z,101472.47
2023-04-26T00:16:25.207Z,101471.41
2023-04-26T00:18:51.774Z,101466.53
2023-04-26T00:21:18.279Z,101470.44
2023-04-26T00:23:44.728Z,101477.31
2023-04-26T00:26:11.109Z,101473.09
2023-04-26T00:28:38.286Z,101483.56
2023-04-26T00:31:04.712Z,101475.75
2023-04-26T00:33:31.324Z,101484.63
2023-04-26T00:35:57.685Z,101477.94
2023-04-26T00:38:24.380Z,101475.91
2023-04-26T00:40:50.769Z,101481.09
2023-04-26T00:43:17.194Z,101458.94
2023-04-26T00:45:43.605Z,101463.78
2023-04-26T00:48:10.044Z,101472.78
2023-04-26T00:50:36.457Z,101464.41
2023-04-26T00:53:03.200Z,101464.03
2023-04-26T00:55:29.732Z,101473.59
2023-04-26T00:57:56.155Z,101481.47
2023-04-26T01:00:22.833Z,101475.88
2023-04-26T01:02:49.404Z,101483.28
2023-04-26T01:05:16.147Z,101479.19
2023-04-26T01:07:42.578Z,101478.59
2023-04-26T01:10:10.081Z,101476.66
2023-04-26T01:12:38.143Z,101477.94
2023-04-26T01:15:05.534Z,101484.56
2023-04-26T01:17:32.028Z,101484.63
2023-04-26T01:19:58.433Z,101474.75
2023-04-26T01:22:24.863Z,101486.78
2023-04-26T01:24:51.689Z,101491.28
2023-04-26T01:27:18.177Z,101494.25
2023-04-26T01:29:44.626Z,101501.97
2023-04-26T01:32:11.928Z,101506.69
2023-04-26T01:34:38.319Z,101494.94
2023-04-26T01:37:04.707Z,101496.66
2023-04-26T01:39:31.332Z,101480.06
2023-04-26T01:41:58.637Z,101483.50
2023-04-26T01:44:25.143Z,101487.09
2023-04-26T01:46:51.523Z,101481.97
2023-04-26T01:49:18.382Z,101478.63
2023-04-26T01:51:44.888Z,101480.84
2023-04-26T01:54:11.382Z,101474.72
2023-04-26T01:56:37.819Z,101483.09
2023-04-26T01:59:04.259Z,101486.97
2023-04-26T02:01:31.142Z,101477.19
2023-04-26T02:03:57.710Z,101480.09
2023-04-26T02:06:24.155Z,101483.31
2023-04-26T02:08:50.862Z,101480.44
2023-04-26T02:11:17.681Z,101485.66
2023-04-26T02:13:44.065Z,101490.19
2023-04-26T02:16:10.648Z,101486.78
2023-04-26T02:18:37.135Z,101477.94
2023-04-26T02:21:08.415Z,101485.91
2023-04-26T02:23:34.803Z,101487.16
2023-04-26T02:26:01.185Z,101492.88
2023-04-26T02:28:27.585Z,101493.28
2023-04-26T02:30:54.107Z,101487.84
2023-04-26T02:33:20.479Z,101487.41
2023-04-26T02:35:46.919Z,101490.00
2023-04-26T02:38:13.297Z,101491.09
2023-04-26T02:40:39.983Z,101487.50
2023-04-26T02:43:06.412Z,101496.88
2023-04-26T02:45:32.948Z,101478.13
2023-04-26T02:47:59.418Z,101482.69
2023-04-26T02:50:25.853Z,101480.31
2023-04-26T02:52:52.353Z,101481.94
2023-04-26T02:55:18.910Z,101481.72
2023-04-26T02:57:45.360Z,101480.00
2023-04-26T03:00:14.114Z,101481.56
2023-04-26T03:02:41.383Z,101482.16
2023-04-26T03:05:09.479Z,101484.28
2023-04-26T03:07:36.279Z,101492.47
2023-04-26T03:10:02.781Z,101491.78
2023-04-26T03:12:29.190Z,101480.47
2023-04-26T03:14:55.641Z,101488.78
2023-04-26T03:17:22.431Z,101498.34
2023-04-26T03:19:48.943Z,101494.28
2023-04-26T03:22:16.326Z,101500.41
2023-04-26T03:24:43.683Z,101493.84
2023-04-26T03:27:11.210Z,101497.84
2023-04-26T03:29:37.639Z,101499.22
2023-04-26T03:32:04.220Z,101496.28
2023-04-26T03:34:30.805Z,101485.75
2023-04-26T03:36:57.293Z,101496.13
2023-04-26T03:39:23.645Z,101505.09
2023-04-26T03:41:50.069Z,101483.91
2023-04-26T03:44:16.516Z,101490.03
2023-04-26T03:46:43.413Z,101505.13
2023-04-26T03:49:09.783Z,101487.16
2023-04-26T03:51:36.242Z,101492.44
2023-04-26T03:54:02.673Z,101496.94
2023-04-26T03:56:29.072Z,101492.22
2023-04-26T03:58:55.447Z,101492.16
2023-04-26T04:01:21.850Z,101494.16
2023-04-26T04:03:48.374Z,101490.22
2023-04-26T04:06:16.740Z,101487.09
2023-04-26T04:08:43.157Z,101493.44
2023-04-26T04:11:09.541Z,101488.44
2023-04-26T04:13:35.921Z,101486.25
2023-04-26T04:16:02.388Z,101489.31
2023-04-26T04:18:29.079Z,101494.34
2023-04-26T04:20:55.902Z,101482.88
2023-04-26T04:23:22.492Z,101487.53
2023-04-26T04:25:49.449Z,101490.00
2023-04-26T04:28:16.410Z,101497.25
2023-04-26T04:30:44.174Z,101500.28
2023-04-26T04:33:10.717Z,101503.06
2023-04-26T04:35:37.165Z,101503.22
2023-04-26T04:38:04.276Z,101500.41
2023-04-26T04:40:31.375Z,101501.38
2023-04-26T04:42:57.784Z,101498.81
2023-04-26T04:45:24.308Z,101497.44
2023-04-26T04:47:50.984Z,101495.91
2023-04-26T04:50:17.583Z,101509.03
2023-04-26T04:52:44.109Z,101513.34
2023-04-26T04:55:10.589Z,101517.06
2023-04-26T04:57:37.056Z,101512.25
2023-04-26T05:00:10.256Z,101515.59
2023-04-26T05:02:37.407Z,101509.22
2023-04-26T05:05:05.082Z,101522.78
2023-04-26T05:07:32.359Z,101515.84
2023-04-26T05:09:58.963Z,101514.19
2023-04-26T05:12:25.621Z,101512.59
2023-04-26T05:14:51.993Z,101515.72
2023-04-26T05:17:18.387Z,101507.97
2023-04-26T05:19:45.187Z,101514.75
2023-04-26T05:22:13.181Z,101511.06
2023-04-26T05:24:39.623Z,101509.69
2023-04-26T05:27:06.161Z,101509.41
2023-04-26T05:29:32.646Z,101510.50
2023-04-26T05:31:59.158Z,101524.31
2023-04-26T05:34:25.557Z,101518.84
2023-04-26T05:36:51.945Z,101522.09
2023-04-26T05:39:20.529Z,101517.31
2023-04-26T05:41:47.105Z,101522.69
2023-04-26T05:44:14.638Z,101514.41
2023-04-26T05:46:41.213Z,101512.47
2023-04-26T05:49:07.651Z,101519.03
2023-04-26T05:51:34.085Z,101519.19
2023-04-26T05:54:00.793Z,101510.44
2023-04-26T05:56:27.274Z,101520.53
2023-04-26T05:58:53.696Z,101526.22
2023-04-26T06:01:20.204Z,101513.03
2023-04-26T06:03:46.707Z,101522.47
2023-04-26T06:06:13.530Z,101532.50
2023-04-26T06:08:40.085Z,101531.03
2023-04-26T06:11:06.605Z,101532.41
2023-04-26T06:13:33.038Z,101527.78
2023-04-26T06:15:59.823Z,101532.63
2023-04-26T06:18:26.251Z,101533.81
2023-04-26T06:20:52.689Z,101533.50
2023-04-26T06:23:20.347Z,101522.28
2023-04-26T06:25:47.129Z,101531.38
2023-04-26T06:28:13.619Z,101537.19
2023-04-26T06:30:40.096Z,101533.69
2023-04-26T06:33:06.734Z,101536.34
2023-04-26T06:35:33.442Z,101542.84
2023-04-26T06:37:59.834Z,101549.56
2023-04-26T06:40:26.216Z,101561.97
2023-04-26T06:42:52.672Z,101563.38
2023-04-26T06:45:19.044Z,101570.91
2023-04-26T06:47:45.647Z,101558.31
2023-04-26T06:50:12.665Z,101566.09
2023-04-26T06:52:39.211Z,101569.25
2023-04-26T06:55:06.063Z,101564.59
2023-04-26T06:57:32.636Z,101572.41
2023-04-26T06:59:59.115Z,101568.31
2023-04-26T07:02:25.809Z,101571.47
2023-04-26T07:04:52.822Z,101574.59
2023-04-26T07:07:19.626Z,101577.59
2023-04-26T07:09:48.627Z,101579.38
2023-04-26T07:12:15.070Z,101577.69
2023-04-26T07:14:43.170Z,101571.94
2023-04-26T07:17:10.481Z,101572.69
2023-04-26T07:19:37.079Z,101573.97
2023-04-26T07:22:04.760Z,101578.88
2023-04-26T07:24:31.134Z,101568.69
2023-04-26T07:26:57.810Z,101569.75
2023-04-26T07:29:24.348Z,101577.47
2023-04-26T07:31:50.879Z,101573.91
2023-04-26T07:34:17.280Z,101578.34
2023-04-26T07:36:43.688Z,101579.09
2023-04-26T07:39:10.793Z,101582.53
2023-04-26T07:41:37.490Z,101581.63
2023-04-26T07:44:04.246Z,101582.66
2023-04-26T07:46:30.736Z,101577.84
2023-04-26T07:48:57.166Z,101578.41
2023-04-26T07:51:23.568Z,101586.31
2023-04-26T07:53:50.894Z,101583.81
2023-04-26T07:56:17.582Z,101576.84
2023-04-26T07:58:44.146Z,101584.56
2023-04-26T08:01:11.824Z,101579.59
2023-04-26T08:03:38.535Z,101579.69
2023-04-26T08:06:05.789Z,101587.91
2023-04-26T08:08:33.384Z,101585.03
2023-04-26T08:10:59.901Z,101591.50
2023-04-26T08:13:29.174Z,101586.19
2023-04-26T08:15:56.033Z,101582.00
2023-04-26T08:18:22.460Z,101586.63
2023-04-26T08:20:49.019Z,101585.97
2023-04-26T08:23:15.437Z,101585.34
2023-04-26T08:25:41.973Z,101581.41
2023-04-26T08:28:08.836Z,101589.09
2023-04-26T08:30:35.269Z,101588.75
2023-04-26T08:33:01.911Z,101603.56
2023-04-26T08:35:28.394Z,101596.69
2023-04-26T08:37:57.959Z,101599.22
2023-04-26T08:40:25.005Z,101600.91
2023-04-26T08:42:52.686Z,101596.06
2023-04-26T08:45:20.908Z,101596.50
2023-04-26T08:47:51.663Z,101592.19
2023-04-26T08:50:22.513Z,101606.91
2023-04-26T08:52:51.310Z,101597.59
2023-04-26T08:55:20.362Z,101603.41
2023-04-26T08:57:48.189Z,101598.19
2023-04-26T09:00:16.105Z,101600.34
2023-04-26T09:02:47.017Z,101595.41
2023-04-26T09:05:13.711Z,101592.59
2023-04-26T09:07:42.780Z,101592.16
2023-04-26T09:10:10.744Z,101591.66
2023-04-26T09:12:37.166Z,101588.28
2023-04-26T09:15:04.843Z,101595.41
2023-04-26T09:17:32.808Z,101602.94
2023-04-26T09:20:00.472Z,101599.28
2023-04-26T09:22:34.640Z,101604.63
2023-04-26T09:25:05.156Z,101603.94
2023-04-26T09:27:34.098Z,101608.44
2023-04-26T09:30:11.104Z,101603.81
2023-04-26T09:32:49.316Z,101612.44
2023-04-26T09:35:23.306Z,101618.88
2023-04-26T09:38:02.316Z,101621.94
2023-04-26T09:40:48.427Z,101612.81
2023-04-26T09:43:19.943Z,101625.25
2023-04-26T09:45:54.206Z,101627.97
2023-04-26T09:48:30.215Z,101627.66
2023-04-26T09:50:58.958Z,101627.03
2023-04-26T09:53:41.540Z,101630.91
2023-04-26T09:56:21.884Z,101639.44
2023-04-26T09:58:52.390Z,101635.63
2023-04-26T10:01:19.683Z,101643.38
2023-04-26T10:03:47.023Z,101644.66
2023-04-26T10:06:13.830Z,101639.84
2023-04-26T10:08:40.350Z,101639.41
2023-04-26T10:11:13.844Z,101635.41
2023-04-26T10:13:41.799Z,101637.53
2023-04-26T10:16:09.752Z,101629.03
2023-04-26T10:18:36.370Z,101641.16
2023-04-26T10:21:07.564Z,101633.28
2023-04-26T10:23:34.700Z,101636.44
2023-04-26T10:26:01.195Z,101635.22
2023-04-26T10:28:40.041Z,101629.16
2023-04-26T10:31:07.708Z,101638.16
2023-04-26T10:33:34.139Z,101640.81
2023-04-26T10:36:01.504Z,101627.50
2023-04-26T10:38:27.963Z,101632.97
2023-04-26T10:40:55.232Z,101629.69
2023-04-26T10:43:28.262Z,101645.97
2023-04-26T10:45:56.838Z,101650.63
2023-04-26T10:48:31.405Z,101651.63
2023-04-26T10:51:12.505Z,101645.78
2023-04-26T10:53:44.648Z,101637.94
2023-04-26T10:56:11.522Z,101643.38
2023-04-26T10:58:41.577Z,101632.13
2023-04-26T11:01:14.463Z,101633.91
2023-04-26T11:03:41.309Z,101642.31
2023-04-26T11:06:15.606Z,101632.78
2023-04-26T11:08:43.135Z,101632.63
2023-04-26T11:11:13.327Z,101641.03
2023-04-26T11:13:41.030Z,101630.59
2023-04-26T11:16:12.082Z,101630.91
2023-04-26T11:18:40.408Z,101623.53
2023-04-26T11:21:07.214Z,101632.28
2023-04-26T11:23:34.230Z,101627.03
2023-04-26T11:26:05.586Z,101629.69
2023-04-26T11:28:34.294Z,101614.44
2023-04-26T11:31:01.961Z,101619.44
2023-04-26T11:33:28.419Z,101620.72
2023-04-26T11:35:55.754Z,101621.63
2023-04-26T11:38:23.517Z,101619.66
2023-04-26T11:41:00.420Z,101618.94
2023-04-26T11:43:45.184Z,101613.16
2023-04-26T11:46:11.698Z,101602.19
2023-04-26T11:48:38.558Z,101608.13
2023-04-26T11:51:06.047Z,101607.44
2023-04-26T11:53:37.741Z,101613.97
2023-04-26T11:56:06.470Z,101607.38
2023-04-26T11:58:32.938Z,101609.63
2023-04-26T12:01:01.904Z,101611.44
2023-04-26T12:03:32.505Z,101606.16
2023-04-26T12:05:58.873Z,101621.88
2023-04-26T12:08:26.023Z,101625.47
2023-04-26T12:10:52.371Z,101626.28
2023-04-26T12:13:19.327Z,101635.63
2023-04-26T12:15:45.740Z,101632.72
2023-04-26T12:18:12.527Z,101637.44
2023-04-26T12:20:43.183Z,101638.94
2023-04-26T12:23:11.906Z,101638.44
2023-04-26T12:25:39.852Z,101648.25
2023-04-26T12:28:12.129Z,101648.19
2023-04-26T12:30:40.273Z,101651.88
2023-04-26T12:33:16.475Z,101659.94
2023-04-26T12:35:44.230Z,101663.91
2023-04-26T12:38:11.069Z,101660.03
2023-04-26T12:40:37.712Z,101664.38
2023-04-26T12:43:04.126Z,101654.19
2023-04-26T12:45:30.563Z,101659.25
2023-04-26T12:47:57.088Z,101653.78
2023-04-26T12:50:23.657Z,101651.94
2023-04-26T12:52:50.329Z,101656.88
2023-04-26T12:55:17.084Z,101655.59
2023-04-26T12:57:44.513Z,101651.50
2023-04-26T13:00:16.256Z,101652.75
2023-04-26T13:02:42.787Z,101643.75
2023-04-26T13:05:09.553Z,101645.91
2023-04-26T13:07:39.263Z,101653.28
2023-04-26T13:10:06.942Z,101638.03
2023-04-26T13:12:34.599Z,101650.47
2023-04-26T13:15:01.175Z,101646.69
2023-04-26T13:17:30.556Z,101653.19
2023-04-26T13:19:57.070Z,101652.34
2023-04-26T13:22:23.466Z,101669.44
2023-04-26T13:24:50.117Z,101671.03
2023-04-26T13:27:16.654Z,101666.97
2023-04-26T13:29:43.140Z,101659.78
2023-04-26T13:32:09.799Z,101656.88
2023-04-26T13:34:36.627Z,101654.47
2023-04-26T13:37:03.979Z,101662.63
2023-04-26T13:39:30.978Z,101660.34
2023-04-26T13:41:58.902Z,101670.00
2023-04-26T13:44:26.071Z,101662.66
2023-04-26T13:46:54.351Z,101665.81
2023-04-26T13:49:22.997Z,101662.19
2023-04-26T13:51:49.473Z,101664.06
2023-04-26T13:54:16.882Z,101663.06
2023-04-26T13:56:43.580Z,101667.06
2023-04-26T13:59:09.984Z,101670.16
2023-04-26T14:01:36.818Z,101675.03
2023-04-26T14:04:04.416Z,101670.22
2023-04-26T14:06:32.684Z,101666.75
2023-04-26T14:08:59.389Z,101662.19
2023-04-26T14:11:25.987Z,101675.03
2023-04-26T14:13:56.012Z,101668.13
2023-04-26T14:16:23.751Z,101664.44
2023-04-26T14:18:50.559Z,101664.63
2023-04-26T14:21:17.185Z,101679.34
2023-04-26T14:23:43.675Z,101667.88
2023-04-26T14:26:10.118Z,101668.63
2023-04-26T14:28:36.591Z,101672.91
2023-04-26T14:31:03.185Z,101679.47
2023-04-26T14:33:29.727Z,101678.38
2023-04-26T14:35:56.685Z,101675.06
2023-04-26T14:38:23.169Z,101672.19
2023-04-26T14:40:49.573Z,101672.78
2023-04-26T14:43:16.117Z,101677.34
2023-04-26T14:45:44.859Z,101678.38
2023-04-26T14:48:14.285Z,101672.91
2023-04-26T14:50:41.244Z,101670.00
2023-04-26T14:53:07.774Z,101679.13
2023-04-26T14:55:34.205Z,101670.13
2023-04-26T14:58:00.687Z,101683.00
2023-04-26T15:00:30.242Z,101676.75
2023-04-26T15:02:56.869Z,101682.72
2023-04-26T15:05:24.229Z,101684.44
2023-04-26T15:07:51.989Z,101686.69
2023-04-26T15:10:18.535Z,101694.06
2023-04-26T15:12:44.913Z,101678.75
2023-04-26T15:15:11.476Z,101682.78
2023-04-26T15:17:38.019Z,101679.50
2023-04-26T15:20:06.302Z,101692.22
2023-04-26T15:22:33.067Z,101687.28
2023-04-26T15:24:59.402Z,101688.94
2023-04-26T15:27:26.251Z,101703.22
2023-04-26T15:29:53.310Z,101688.09
2023-04-26T15:32:19.602Z,101693.69
2023-04-26T15:34:45.957Z,101683.25
2023-04-26T15:37:12.267Z,101692.84
2023-04-26T15:39:38.686Z,101687.13
2023-04-26T15:42:05.797Z,101691.09
2023-04-26T15:44:32.244Z,101692.25
2023-04-26T15:46:58.611Z,101692.53
2023-04-26T15:49:24.962Z,101690.66
2023-04-26T15:51:51.393Z,101693.19
2023-04-26T15:54:17.760Z,101692.94
2023-04-26T15:56:44.581Z,101696.88
2023-04-26T15:59:10.862Z,101694.84
2023-04-26T16:01:37.271Z,101690.72
2023-04-26T16:04:03.655Z,101697.25
2023-04-26T16:06:30.173Z,101691.34
2023-04-26T16:08:56.698Z,101697.66
2023-04-26T16:11:23.122Z,101693.91
2023-04-26T16:13:51.786Z,101696.00
2023-04-26T16:16:18.523Z,101699.03
2023-04-26T16:18:44.995Z,101699.09
2023-04-26T16:21:12.493Z,101694.00
2023-04-26T16:23:39.298Z,101689.53
2023-04-26T16:26:05.827Z,101691.41
2023-04-26T16:28:32.103Z,101690.66
2023-04-26T16:30:58.525Z,101694.34
2023-04-26T16:33:25.437Z,101686.81
2023-04-26T16:35:52.674Z,101687.03
2023-04-26T16:38:19.242Z,101687.22
2023-04-26T16:40:52.876Z,101678.00
2023-04-26T16:43:19.594Z,101688.31
2023-04-26T16:45:46.162Z,101688.94
2023-04-26T16:48:12.571Z,101680.78
2023-04-26T16:50:38.897Z,101685.44
2023-04-26T16:53:05.450Z,101679.25
2023-04-26T16:55:31.786Z,101678.94
2023-04-26T16:57:58.291Z,101683.97
2023-04-26T17:00:24.704Z,101683.34
2023-04-26T17:02:51.263Z,101679.03
2023-04-26T17:05:18.034Z,101678.78
2023-04-26T17:07:44.397Z,101689.34
2023-04-26T17:10:10.756Z,101691.47
2023-04-26T17:12:39.282Z,101686.59
2023-04-26T17:15:07.074Z,101689.75
2023-04-26T17:17:33.516Z,101692.44
2023-04-26T17:19:59.956Z,101695.13
2023-04-26T17:22:26.342Z,101691.47
2023-04-26T17:24:53.042Z,101693.41
2023-04-26T17:27:19.590Z,101686.84
2023-04-26T17:29:45.998Z,101689.16
2023-04-26T17:32:12.742Z,101693.66
2023-04-26T17:34:39.249Z,101690.09
2023-04-26T17:37:05.791Z,101690.09
2023-04-26T17:39:32.160Z,101689.84
2023-04-26T17:41:58.549Z,101697.41
2023-04-26T17:44:24.909Z,101697.41
2023-04-26T17:46:51.361Z,101691.44
2023-04-26T17:49:17.733Z,101694.16
2023-04-26T17:51:44.143Z,101703.06
2023-04-26T17:54:10.727Z,101698.63
2023-04-26T17:56:37.333Z,101703.06
2023-04-26T17:59:03.905Z,101698.38
2023-04-26T18:01:30.612Z,101703.63
2023-04-26T18:03:57.403Z,101699.50
2023-04-26T18:06:23.932Z,101703.03
2023-04-26T18:08:50.407Z,101699.06
2023-04-26T18:11:17.437Z,101695.00
2023-04-26T18:13:45.468Z,101706.22
2023-04-26T18:16:12.645Z,101705.88
2023-04-26T18:18:39.042Z,101699.16
2023-04-26T18:21:05.443Z,101702.91
2023-04-26T18:23:31.822Z,101701.78
2023-04-26T18:25:58.473Z,101707.91
2023-04-26T18:28:24.885Z,101703.56
2023-04-26T18:30:58.463Z,101700.53
2023-04-26T18:33:25.874Z,101707.13
2023-04-26T18:35:52.554Z,101713.22
2023-04-26T18:38:19.057Z,101713.00
2023-04-26T18:40:47.752Z,101718.75
2023-04-26T18:43:15.634Z,101719.19
2023-04-26T18:45:42.080Z,101714.16
2023-04-26T18:48:08.552Z,101715.63
2023-04-26T18:50:34.958Z,101719.34
2023-04-26T18:53:01.393Z,101723.06
2023-04-26T18:55:27.768Z,101724.50
2023-04-26T18:57:54.234Z,101721.78
2023-04-26T19:00:20.624Z,101723.16
2023-04-26T19:02:47.192Z,101728.88
2023-04-26T19:05:13.916Z,101734.88
2023-04-26T19:07:41.694Z,101732.34
2023-04-26T19:10:08.469Z,101725.09
2023-04-26T19:12:34.871Z,101727.25
2023-04-26T19:15:01.884Z,101741.19
2023-04-26T19:17:29.405Z,101736.69
2023-04-26T19:19:55.896Z,101746.00
2023-04-26T19:22:22.312Z,101741.06
2023-04-26T19:24:50.047Z,101737.88
2023-04-26T19:27:17.003Z,101743.44
2023-04-26T19:29:43.637Z,101752.56
2023-04-26T19:32:10.075Z,101741.63
2023-04-26T19:34:38.666Z,101750.44
2023-04-26T19:37:05.216Z,101754.41
2023-04-26T19:39:31.581Z,101750.03
2023-04-26T19:41:58.784Z,101745.06
2023-04-26T19:44:26.155Z,101745.34
2023-04-26T19:46:52.841Z,101747.13
2023-04-26T19:49:19.262Z,101748.63
2023-04-26T19:51:45.793Z,101747.69
2023-04-26T19:54:12.153Z,101746.44
2023-04-26T19:56:38.566Z,101751.91
2023-04-26T19:59:05.337Z,101748.25
2023-04-26T20:01:32.270Z,101754.16
2023-04-26T20:03:58.865Z,101748.69
2023-04-26T20:06:26.339Z,101758.13
2023-04-26T20:08:52.691Z,101761.03
2023-04-26T20:11:19.426Z,101759.81
2023-04-26T20:13:46.289Z,101762.47
2023-04-26T20:16:12.859Z,101771.22
2023-04-26T20:18:39.396Z,101763.03
2023-04-26T20:21:06.091Z,101757.34
2023-04-26T20:23:32.653Z,101768.53
2023-04-26T20:25:59.098Z,101771.03
2023-04-26T20:28:26.104Z,101773.31
2023-04-26T20:30:53.013Z,101767.69
2023-04-26T20:33:19.692Z,101773.47
2023-04-26T20:35:46.285Z,101782.94
2023-04-26T20:38:12.788Z,101769.41
2023-04-26T20:40:39.277Z,101774.47
2023-04-26T20:43:05.931Z,101772.97
2023-04-26T20:45:32.385Z,101776.09
2023-04-26T20:47:58.852Z,101781.50
2023-04-26T20:50:25.346Z,101769.81
2023-04-26T20:52:52.067Z,101782.75
2023-04-26T20:55:18.577Z,101781.13
2023-04-26T20:57:45.075Z,101778.06
2023-04-26T21:00:11.819Z,101779.25
2023-04-26T21:02:38.465Z,101784.66
2023-04-26T21:05:05.494Z,101779.34
2023-04-26T21:07:32.433Z,101779.72
2023-04-26T21:09:58.926Z,101789.91
2023-04-26T21:12:25.794Z,101780.19
2023-04-26T21:14:52.182Z,101781.03
2023-04-26T21:17:19.052Z,101788.03
2023-04-26T21:19:45.470Z,101790.81
2023-04-26T21:22:12.483Z,101789.53
2023-04-26T21:24:38.856Z,101791.78
2023-04-26T21:27:05.381Z,101779.56
2023-04-26T21:29:32.022Z,101784.94
2023-04-26T21:31:58.483Z,101779.31
2023-04-26T21:34:24.884Z,101782.38
2023-04-26T21:36:51.344Z,101783.63
2023-04-26T21:39:18.278Z,101785.78
2023-04-26T21:41:44.683Z,101793.28
2023-04-26T21:44:11.296Z,101794.22
2023-04-26T21:46:37.781Z,101795.22
2023-04-26T21:49:04.190Z,101789.94
2023-04-26T21:51:31.266Z,101788.75
2023-04-26T21:53:57.693Z,101785.13
2023-04-26T21:56:24.129Z,101793.28
2023-04-26T21:58:50.620Z,101798.09
2023-04-26T22:01:17.192Z,101796.25
2023-04-26T22:03:43.683Z,101795.97
2023-04-26T22:06:10.128Z,101790.34
2023-04-26T22:08:36.541Z,101787.16
2023-04-26T22:11:03.022Z,101798.13
2023-04-26T22:13:30.713Z,101785.50
2023-04-26T22:15:57.126Z,101796.41
2023-04-26T22:18:23.559Z,101788.31
2023-04-26T22:20:49.950Z,101791.88
2023-04-26T22:23:16.340Z,101799.22
2023-04-26T22:25:42.765Z,101798.69
2023-04-26T22:28:09.146Z,101797.22
2023-04-26T22:30:35.752Z,101803.09
2023-04-26T22:33:02.166Z,101803.53
2023-04-26T22:35:29.078Z,101798.88
2023-04-26T22:37:55.659Z,101806.00
2023-04-26T22:40:22.064Z,101806.78
2023-04-26T22:42:48.502Z,101813.00
2023-04-26T22:45:14.929Z,101814.94
2023-04-26T22:47:41.573Z,101817.75
2023-04-26T22:50:08.705Z,101809.75
2023-04-26T22:52:35.704Z,101809.56
2023-04-26T22:55:02.528Z,101816.22
2023-04-26T22:57:29.819Z,101817.97
2023-04-26T22:59:56.272Z,101803.28
2023-04-26T23:02:22.703Z,101818.81
2023-04-26T23:04:49.230Z,101821.97
2023-04-26T23:07:16.409Z,101826.59
2023-04-26T23:09:43.088Z,101825.19
2023-04-26T23:12:09.787Z,101828.16
2023-04-26T23:14:36.156Z,101822.91
2023-04-26T23:17:02.950Z,101829.13
2023-04-26T23:19:29.375Z,101829.25
2023-04-26T23:21:55.763Z,101836.69
2023-04-26T23:24:22.160Z,101838.06
2023-04-26T23:26:48.580Z,101832.88
2023-04-26T23:29:15.210Z,101838.25
2023-04-26T23:31:41.957Z,101839.66
2023-04-26T23:34:08.464Z,101829.59
2023-04-26T23:36:34.869Z,101840.50
2023-04-26T23:39:01.393Z,101836.25
2023-04-26T23:41:27.818Z,101837.13
2023-04-26T23:43:54.313Z,101833.28
2023-04-26T23:46:20.727Z,101837.22
2023-04-26T23:48:47.209Z,101838.28
2023-04-26T23:51:13.630Z,101838.34
2023-04-26T23:53:40.014Z,101842.00
2023-04-26T23:56:07.232Z,101843.91
2023-04-26T23:58:33.837Z,101835.22
